• Join FlightAware (Why Join?)
  • Login
  • US Flag 
05:46AM EDT


 

Airport Tracker/Info


-or-


 

Live Flight TrackerFlight Track Log ✈ FDX1603 ✈ 07-May-2013 ✈ KATL - KIND

Flight Track Log - Related Links

Times and Time Zones

All times are in EDT time to prevent confusion due to time zone crossing. See the FDX1603 flight status page for this flight to view local times or setup timezone preferences in your user account.

Time Position Orientation Groundspeed Altitude Reporting Facility
EDT Latitude Longitude Course Direction KTS MPH feet Rate Location/Type
11:28PM 33.6490 -84.4790 273° West 213 245 3,500  Level FlightAware
11:28PM 33.6500 -84.5010 273° West 238 274 4,200 3,300 Climbing FlightAware
11:28PM 33.6520 -84.5400 274° West 261 300 6,000 3,720 Climbing FlightAware
11:29PM 33.6620 -84.6140 279° West 274 315 9,200 3,900 Climbing FlightAware
11:29PM 33.6680 -84.6220 312° West 276 318 9,600 3,360 Climbing FlightAware
11:30PM 33.6950 -84.6370 335° Northwest 290 334 10,900 2,640 Climbing FlightAware
11:30PM 33.7310 -84.6390 357° North 325 374 11,800 2,400 Climbing FlightAware
11:31PM 33.7970 -84.6350 North 363 418 13,500 3,180 Climbing FlightAware
11:32PM 33.8990 -84.6270 North 364 419 17,100 3,360 Climbing FlightAware
11:33PM 33.9968 -84.6189 North 19,900 3,180 Climbing FlightAware ADS-B
11:33PM 34.0260 -84.6164 North 392 451 20,700 2,760 Climbing FlightAware ADS-B
11:33PM 34.0882 -84.6109 North 405 466 22,200 1,980 Climbing FlightAware ADS-B
11:34PM 34.1542 -84.6054 North 408 470 23,000 1,680 Climbing FlightAware ADS-B
11:35PM 34.2138 -84.6003 North 410 472 24,100 2,280 Climbing FlightAware ADS-B
11:35PM 34.2618 -84.5961 North 414 476 25,200 2,640 Climbing FlightAware ADS-B
11:35PM 34.2818 -84.5964 359° North 415 478 25,700 2,700 Climbing FlightAware ADS-B
11:35PM 34.3097 -84.5999 354° North 420 483 26,300 2,220 Climbing FlightAware ADS-B
11:36PM 34.3686 -84.6147 348° North 429 494 27,400 2,040 Climbing FlightAware ADS-B
11:36PM 34.4284 -84.6289 349° North 439 505 28,400 1,980 Climbing FlightAware ADS-B
11:37PM 34.4925 -84.6447 349° North 447 514 29,500 2,520 Climbing FlightAware ADS-B
11:37PM 34.5547 -84.6602 348° North 440 506 31,100 2,400 Climbing FlightAware ADS-B
11:38PM 34.6159 -84.6756 348° North 437 503 32,000 840 Climbing FlightAware ADS-B
11:39PM 34.6775 -84.6909 348° North 436 502 32,000  Level FlightAware ADS-B
11:39PM 34.7383 -84.7055 349° North 438 504 32,000  Level FlightAware ADS-B
11:40PM 34.8054 -84.7223 348° North 438 504 32,000  Level FlightAware ADS-B
11:40PM 34.8667 -84.7375 349° North 435 501 32,000  Level FlightAware ADS-B
11:41PM 34.9279 -84.7525 349° North 433 498 32,000  Level FlightAware ADS-B
11:41PM 34.9883 -84.7678 348° North 434 499 32,000  Level FlightAware ADS-B
11:42PM 35.0496 -84.7833 348° North 435 501 32,000  Level FlightAware ADS-B
11:42PM 35.1097 -84.7978 349° North 435 501 32,000  Level FlightAware ADS-B
11:43PM 35.1694 -84.8126 349° North 435 501 32,000  Level FlightAware ADS-B
11:43PM 35.2310 -84.8285 348° North 435 501 32,000  Level FlightAware ADS-B
11:44PM 35.2907 -84.8434 348° North 434 499 32,000  Level FlightAware ADS-B
11:44PM 35.3507 -84.8582 349° North 435 501 32,000  Level FlightAware ADS-B
11:45PM 35.4113 -84.8737 348° North 437 503 32,000  Level FlightAware ADS-B
11:45PM 35.4723 -84.8893 348° North 437 503 32,000  Level FlightAware ADS-B
11:46PM 35.5323 -84.9043 349° North 436 502 32,000  Level FlightAware ADS-B
11:46PM 35.5931 -84.9199 348° North 438 504 32,000 60 Level FlightAware ADS-B
11:47PM 35.6530 -84.9350 348° North 438 504 32,100 60 Climbing FlightAware ADS-B
11:47PM 35.7138 -84.9500 349° North 436 502 32,100  Level FlightAware ADS-B
11:48PM 35.7733 -84.9654 348° North 434 499 32,100 -120 Level FlightAware ADS-B
11:48PM 35.8341 -84.9805 349° North 434 499 32,000 -120 Descending FlightAware ADS-B
11:49PM 35.8932 -84.9957 348° North 434 499 32,000  Level FlightAware ADS-B
11:49PM 35.9637 -85.0137 348° North 433 498 32,000  Level FlightAware ADS-B
11:50PM 36.0227 -85.0289 348° North 433 498 32,000  Level FlightAware ADS-B
11:50PM 36.0833 -85.0446 348° North 432 497 32,000  Level FlightAware ADS-B
11:51PM 36.1426 -85.0595 349° North 433 498 32,000  Level FlightAware ADS-B
11:51PM 36.2021 -85.0750 348° North 433 498 32,000  Level FlightAware ADS-B
11:52PM 36.2709 -85.0928 348° North 432 497 32,000  Level FlightAware ADS-B
11:52PM 36.3314 -85.1083 348° North 433 498 32,000  Level FlightAware ADS-B
11:53PM 36.4219 -85.1318 348° North 433 498 32,000  Level FlightAware ADS-B
11:54PM 36.4826 -85.1462 349° North 441 507 32,000  Level FlightAware ADS-B
11:54PM 36.5447 -85.1594 350° North 451 519 32,000  Level FlightAware ADS-B
11:55PM 36.6067 -85.1731 350° North 450 518 32,000  Level FlightAware ADS-B
11:56PM 36.6880 -85.1910 350° North 449 517 32,000  Level FlightAware
11:56PM 36.7230 -85.1994 349° North 451 519 32,000  Level FlightAware ADS-B
11:56PM 36.7852 -85.2136 350° North 453 521 32,000  Level FlightAware ADS-B
11:57PM 36.8534 -85.2292 350° North 455 524 32,000  Level FlightAware ADS-B
11:57PM 36.9379 -85.2486 350° North 454 522 32,000  Level FlightAware ADS-B
11:58PM 37.0014 -85.2630 350° North 452 520 32,000  Level FlightAware ADS-B
11:58PM 37.0637 -85.2772 350° North 454 522 32,000  Level FlightAware ADS-B
11:59PM 37.1267 -85.2916 350° North 457 526 32,000  Level FlightAware ADS-B
11:59PM 37.1903 -85.3066 349° North 457 526 32,000  Level FlightAware ADS-B
12:00AM 37.2551 -85.3214 350° North 456 525 32,000  Level FlightAware ADS-B
12:00AM 37.3180 -85.3357 350° North 458 527 32,000  Level FlightAware ADS-B
12:01AM 37.4011 -85.3551 349° North 458 527 32,000  Level FlightAware ADS-B
12:02AM 37.4678 -85.3706 350° North 459 528 32,000  Level FlightAware ADS-B
12:02AM 37.5316 -85.3856 349° North 458 527 32,000  Level FlightAware ADS-B
12:03AM 37.6670 -85.4170 350° North 458 527 32,000  Level FlightAware
12:04AM 37.7610 -85.4390 350° North 459 528 32,000  Level FlightAware
12:05AM 37.8440 -85.4580 350° North 461 531 32,000  Level FlightAware
12:05AM 37.9280 -85.4780 349° North 461 531 32,000  Level FlightAware
12:06AM 38.0230 -85.5010 349° North 462 532 32,000  Level FlightAware
12:07AM 38.1090 -85.5210 350° North 463 533 32,000 -180 Level FlightAware
12:07AM 38.1900 -85.5410 349° North 441 507 31,800 -1,560 Descending FlightAware
12:08AM 38.2810 -85.5610 350° North 453 521 29,800 -2,700 Descending FlightAware
12:09AM 38.3630 -85.5810 349° North 460 529 28,000 -2,580 Descending FlightAware
12:10AM 38.4560 -85.6030 350° North 445 512 26,200 -2,520 Descending FlightAware
12:10AM 38.5390 -85.6230 349° North 434 499 24,500 -2,280 Descending FlightAware
12:11AM 38.6250 -85.6430 350° North 425 489 23,000 -1,980 Descending FlightAware
12:12AM 38.7030 -85.6560 353° North 420 483 21,700 -2,100 Descending FlightAware
12:12AM 38.7790 -85.6690 352° North 414 476 20,200 -2,280 Descending FlightAware
12:13AM 38.8540 -85.6820 352° North 409 471 18,700 -2,340 Descending FlightAware
12:14AM 38.9400 -85.6980 352° North 396 456 16,900 -2,220 Descending FlightAware
12:15AM 39.0280 -85.7140 352° North 385 443 15,200 -1,620 Descending FlightAware
12:16AM 39.1290 -85.7330 352° North 379 436 14,000 -720 Descending FlightAware
12:16AM 39.1880 -85.7450 351° North 379 436 14,000  Level FlightAware
12:17AM 39.2460 -85.7570 351° North 379 436 14,000 -3,120 Level FlightAware
12:17AM 39.3000 -85.7667 351° North 379 436 11,100 -4,140 Descending Indianapolis TRACON
12:18AM 39.3400 -85.7956 331° Northwest 372 428 10,500 -720 Descending Indianapolis Center
12:19AM 39.4072 -85.8764 317° Northwest 334 384 10,000 -300 Descending Indianapolis Center
12:20AM 39.4639 -85.9478 316° Northwest 294 338 10,000 -60 Level Indianapolis Center
12:21AM 39.5225 -86.0169 318° Northwest 287 330 9,900 -660 Descending Indianapolis Center
12:22AM 39.5375 -86.1203 281° West 298 343 8,700 -1,200 Descending Indianapolis Center
12:23AM 39.5433 -86.2231 274° West 290 334 7,500 -1,440 Descending Indianapolis Center
12:24AM 39.5489 -86.3231 274° West 279 321 5,900 -1,380 Descending Indianapolis Center
12:25AM 39.5531 -86.4122 273° West 255 293 4,800 -1,140 Descending Indianapolis Center
12:26AM 39.5961 -86.4289 343° North 185 213 3,700 -1,080 Descending Indianapolis Center
12:27AM 39.6317 -86.3911 39° Northeast 168 193 2,700 -960 Descending Indianapolis Center
12:28AM 39.6614 -86.3542 44° Northeast 159 183 1,800 -780 Descending Indianapolis Center
12:29AM 39.6872 -86.3211 45° Northeast 146 168 1,200 -600 Descending Indianapolis Center
12:30AM 39.7158 -86.2839 45° Northeast 140 161 700 -540 Descending Indianapolis Center
12:32AM 39.7173 -86.2947 142° Southeast  Level Estimated